createdAt,value
2023-05-02T00:02:08.780Z,101298.70
2023-05-02T00:04:36.400Z,101302.45
2023-05-02T00:07:05.881Z,101300.70
2023-05-02T00:09:32.744Z,101302.09
2023-05-02T00:11:59.877Z,101300.35
2023-05-02T00:14:29.156Z,101313.18
2023-05-02T00:16:56.142Z,101315.92
2023-05-02T00:19:23.188Z,101318.81
2023-05-02T00:21:50.219Z,101321.24
2023-05-02T00:24:17.903Z,101325.83
2023-05-02T00:26:44.863Z,101328.95
2023-05-02T00:29:11.813Z,101331.36
2023-05-02T00:31:41.466Z,101332.05
2023-05-02T00:34:08.522Z,101334.52
2023-05-02T00:36:36.074Z,101334.52
2023-05-02T00:39:03.827Z,101337.70
2023-05-02T00:41:32.085Z,101336.94
2023-05-02T00:43:59.011Z,101337.64
2023-05-02T00:46:25.906Z,101337.84
2023-05-02T00:48:52.806Z,101342.88
2023-05-02T00:51:20.426Z,101344.15
2023-05-02T00:53:47.435Z,101343.52
2023-05-02T00:56:14.943Z,101347.31
2023-05-02T00:58:44.301Z,101347.58
2023-05-02T01:01:21.777Z,101345.74
2023-05-02T01:03:58.034Z,101349.75
2023-05-02T01:07:11.376Z,101352.63
2023-05-02T01:09:50.188Z,101352.36
2023-05-02T01:12:33.662Z,101358.30
2023-05-02T01:15:03.600Z,101360.73
2023-05-02T01:17:32.701Z,101361.15
2023-05-02T01:20:03.553Z,101358.98
2023-05-02T01:22:31.545Z,101360.54
2023-05-02T01:25:09.396Z,101358.77
2023-05-02T01:27:43.374Z,101364.19
2023-05-02T01:30:10.421Z,101366.35
2023-05-02T01:32:38.432Z,101369.20
2023-05-02T01:35:06.082Z,101370.64
2023-05-02T01:37:33.536Z,101372.80
2023-05-02T01:40:00.779Z,101373.98
2023-05-02T01:42:28.227Z,101373.02
2023-05-02T01:44:57.902Z,101379.30
2023-05-02T01:47:25.057Z,101380.56
2023-05-02T01:49:53.162Z,101383.02
2023-05-02T01:52:20.223Z,101384.13
2023-05-02T01:54:47.160Z,101382.88
2023-05-02T01:57:15.349Z,101386.97
2023-05-02T01:59:43.125Z,101390.39
2023-05-02T02:02:10.161Z,101390.44
2023-05-02T02:04:38.485Z,101384.25
2023-05-02T02:07:09.175Z,101384.95
2023-05-02T02:09:36.844Z,101385.40
2023-05-02T02:12:11.055Z,101384.95
2023-05-02T02:14:38.329Z,101387.80
2023-05-02T02:17:22.189Z,101387.09
2023-05-02T02:19:49.153Z,101386.45
2023-05-02T02:22:16.150Z,101385.77
2023-05-02T02:24:43.250Z,101387.50
2023-05-02T02:27:10.266Z,101387.96
2023-05-02T02:29:37.188Z,101386.91
2023-05-02T02:32:04.379Z,101388.53
2023-05-02T02:34:31.347Z,101386.80
2023-05-02T02:37:01.522Z,101389.58
2023-05-02T02:39:50.586Z,101392.31
2023-05-02T02:42:20.627Z,101400.50
2023-05-02T02:45:10.373Z,101401.81
2023-05-02T02:48:02.770Z,101401.05
2023-05-02T02:51:15.675Z,101402.19
2023-05-02T02:53:54.904Z,101407.20
2023-05-02T02:56:41.776Z,101405.77
2023-05-02T02:59:29.621Z,101408.14
2023-05-02T03:02:09.163Z,101406.42
2023-05-02T03:04:38.542Z,101407.11
2023-05-02T03:07:05.727Z,101411.47
2023-05-02T03:09:43.505Z,101416.64
2023-05-02T03:12:11.695Z,101419.00
2023-05-02T03:14:39.909Z,101421.83
2023-05-02T03:17:10.217Z,101427.08
2023-05-02T03:19:37.983Z,101428.89
2023-05-02T03:22:05.206Z,101430.66
2023-05-02T03:24:33.534Z,101432.96
2023-05-02T03:27:00.559Z,101430.91
2023-05-02T03:29:31.050Z,101435.83
2023-05-02T03:31:58.064Z,101437.47
2023-05-02T03:34:25.764Z,101439.56
2023-05-02T03:36:52.828Z,101442.40
2023-05-02T03:39:20.558Z,101446.11
2023-05-02T03:41:50.639Z,101446.20
2023-05-02T03:44:20.740Z,101446.08
2023-05-02T03:46:47.984Z,101452.00
2023-05-02T03:49:15.266Z,101456.95
2023-05-02T03:51:43.315Z,101459.66
2023-05-02T03:54:11.792Z,101460.00
2023-05-02T03:56:42.129Z,101462.32
2023-05-02T03:59:19.755Z,101465.13
2023-05-02T04:01:50.594Z,101466.36
2023-05-02T04:04:19.948Z,101468.53
2023-05-02T04:06:50.870Z,101469.56
2023-05-02T04:09:19.913Z,101471.63
2023-05-02T04:11:52.340Z,101471.23
2023-05-02T04:14:20.905Z,101472.36
2023-05-02T04:16:49.611Z,101473.78
2023-05-02T04:19:20.023Z,101468.95
2023-05-02T04:21:47.087Z,101464.70
2023-05-02T04:24:14.634Z,101464.59
2023-05-02T04:26:42.385Z,101459.66
2023-05-02T04:29:13.068Z,101468.70
2023-05-02T04:31:40.144Z,101469.86
2023-05-02T04:34:10.007Z,101460.73
2023-05-02T04:36:42.089Z,101464.06
2023-05-02T04:39:11.988Z,101464.13
2023-05-02T04:41:42.918Z,101468.38
2023-05-02T04:44:10.279Z,101466.89
2023-05-02T04:46:38.259Z,101471.51
2023-05-02T04:49:05.713Z,101472.33
2023-05-02T04:51:32.782Z,101475.88
2023-05-02T04:54:00.116Z,101473.79
2023-05-02T04:56:27.353Z,101476.10
2023-05-02T04:58:56.414Z,101473.41
2023-05-02T05:01:27.462Z,101471.40
2023-05-02T05:03:55.378Z,101476.39
2023-05-02T05:06:22.403Z,101478.48
2023-05-02T05:08:49.807Z,101475.04
2023-05-02T05:11:17.039Z,101471.14
2023-05-02T05:13:44.356Z,101474.73
2023-05-02T05:16:12.878Z,101475.11
2023-05-02T05:18:40.786Z,101478.34
2023-05-02T05:21:10.992Z,101476.56
2023-05-02T05:23:45.480Z,101474.48
2023-05-02T05:26:15.723Z,101475.06
2023-05-02T05:28:45.929Z,101481.20
2023-05-02T05:31:16.918Z,101479.67
2023-05-02T05:33:47.333Z,101473.50
2023-05-02T05:36:15.286Z,101467.27
2023-05-02T05:38:42.592Z,101467.07
2023-05-02T05:41:10.923Z,101469.27
2023-05-02T05:43:42.326Z,101472.90
2023-05-02T05:46:11.353Z,101473.44
2023-05-02T05:48:38.399Z,101473.73
2023-05-02T05:51:05.627Z,101471.80
2023-05-02T05:53:33.052Z,101474.01
2023-05-02T05:56:12.384Z,101477.32
2023-05-02T05:58:43.752Z,101476.39
2023-05-02T06:01:13.092Z,101474.30
2023-05-02T06:03:41.098Z,101473.08
2023-05-02T06:06:08.287Z,101467.77
2023-05-02T06:08:35.654Z,101467.09
2023-05-02T06:11:10.168Z,101467.64
2023-05-02T06:13:37.597Z,101463.27
2023-05-02T06:16:05.402Z,101466.66
2023-05-02T06:18:33.161Z,101468.86
2023-05-02T06:21:04.701Z,101471.76
2023-05-02T06:23:33.156Z,101466.14
2023-05-02T06:26:01.237Z,101467.90
2023-05-02T06:28:28.462Z,101471.54
2023-05-02T06:31:03.689Z,101471.66
2023-05-02T06:33:32.156Z,101473.41
2023-05-02T06:36:00.797Z,101473.77
2023-05-02T06:38:29.501Z,101473.27
2023-05-02T06:40:57.050Z,101472.31
2023-05-02T06:43:24.485Z,101473.26
2023-05-02T06:45:56.077Z,101477.23
2023-05-02T06:48:23.195Z,101477.50
2023-05-02T06:50:51.281Z,101479.40
2023-05-02T06:53:18.203Z,101479.34
2023-05-02T06:55:45.891Z,101479.70
2023-05-02T06:58:14.190Z,101482.89
2023-05-02T07:00:41.744Z,101480.70
2023-05-02T07:03:13.046Z,101478.96
2023-05-02T07:05:42.605Z,101479.64
2023-05-02T07:08:11.256Z,101476.17
2023-05-02T07:10:38.221Z,101478.27
2023-05-02T07:13:05.151Z,101478.65
2023-05-02T07:15:32.821Z,101479.80
2023-05-02T07:18:00.507Z,101479.82
2023-05-02T07:20:27.575Z,101482.02
2023-05-02T07:22:54.504Z,101478.70
2023-05-02T07:25:21.659Z,101475.59
2023-05-02T07:27:49.935Z,101474.16
2023-05-02T07:30:17.580Z,101472.91
2023-05-02T07:32:45.003Z,101479.88
2023-05-02T07:35:15.180Z,101477.18
2023-05-02T07:37:42.485Z,101474.63
2023-05-02T07:40:10.081Z,101475.81
2023-05-02T07:42:37.133Z,101475.61
2023-05-02T07:45:04.461Z,101472.36
2023-05-02T07:47:31.872Z,101476.52
2023-05-02T07:49:59.150Z,101476.89
2023-05-02T07:52:26.485Z,101476.54
2023-05-02T07:54:55.930Z,101476.73
2023-05-02T07:57:26.208Z,101474.92
2023-05-02T07:59:53.071Z,101471.76
2023-05-02T08:02:21.330Z,101478.25
2023-05-02T08:04:48.652Z,101476.38
2023-05-02T08:07:16.431Z,101474.86
2023-05-02T08:09:43.398Z,101475.31
2023-05-02T08:12:10.295Z,101475.55
2023-05-02T08:14:37.286Z,101473.64
2023-05-02T08:17:04.147Z,101474.02
2023-05-02T08:19:31.740Z,101467.75
2023-05-02T08:21:58.942Z,101462.09
2023-05-02T08:24:25.872Z,101461.45
2023-05-02T08:26:52.744Z,101460.77
2023-05-02T08:29:20.121Z,101462.05
2023-05-02T08:31:48.436Z,101458.89
2023-05-02T08:34:15.454Z,101456.98
2023-05-02T08:36:44.062Z,101455.88
2023-05-02T08:39:11.811Z,101455.27
2023-05-02T08:41:38.936Z,101454.95
2023-05-02T08:44:06.491Z,101450.92
2023-05-02T08:46:35.637Z,101445.64
2023-05-02T08:49:02.790Z,101447.61
2023-05-02T08:51:32.145Z,101443.23
2023-05-02T08:54:00.054Z,101439.34
2023-05-02T08:56:29.148Z,101438.67
2023-05-02T08:58:55.987Z,101443.75
2023-05-02T09:01:23.816Z,101443.56
2023-05-02T09:03:51.876Z,101439.46
2023-05-02T09:06:20.276Z,101437.20
2023-05-02T09:08:49.113Z,101431.02
2023-05-02T09:11:16.467Z,101421.94
2023-05-02T09:13:44.581Z,101422.86
2023-05-02T09:16:25.411Z,101424.54
2023-05-02T09:18:56.333Z,101420.52
2023-05-02T09:21:34.473Z,101417.06
2023-05-02T09:24:04.007Z,101413.90
2023-05-02T09:26:32.121Z,101406.63
2023-05-02T09:29:00.766Z,101405.64
2023-05-02T09:31:54.939Z,101403.85
2023-05-02T09:34:28.062Z,101391.73
2023-05-02T09:37:05.835Z,101393.84
2023-05-02T09:39:32.773Z,101395.73
2023-05-02T09:42:00.771Z,101387.95
2023-05-02T09:44:38.642Z,101386.30
2023-05-02T09:47:06.382Z,101384.77
2023-05-02T09:49:45.304Z,101382.79
2023-05-02T09:52:17.371Z,101380.93
2023-05-02T09:54:45.913Z,101377.95
2023-05-02T09:57:12.891Z,101379.30
2023-05-02T09:59:40.125Z,101377.79
2023-05-02T10:02:09.232Z,101383.13
2023-05-02T10:04:36.322Z,101380.77
2023-05-02T10:07:03.444Z,101374.68
2023-05-02T10:09:36.405Z,101379.59
2023-05-02T10:12:07.759Z,101380.67
2023-05-02T10:14:39.462Z,101379.77
2023-05-02T10:17:23.254Z,101374.04
2023-05-02T10:20:05.766Z,101376.25
2023-05-02T10:22:33.432Z,101374.86
2023-05-02T10:25:01.754Z,101374.73
2023-05-02T10:27:30.633Z,101373.02
2023-05-02T10:30:00.740Z,101373.24
2023-05-02T10:32:31.721Z,101368.98
2023-05-02T10:35:03.514Z,101368.08
2023-05-02T10:37:33.240Z,101361.66
2023-05-02T10:40:00.237Z,101362.41
2023-05-02T10:42:28.881Z,101361.73
2023-05-02T10:44:58.752Z,101358.80
2023-05-02T10:47:39.900Z,101356.50
2023-05-02T10:50:09.692Z,101356.36
2023-05-02T10:52:37.876Z,101358.71
2023-05-02T10:55:19.306Z,101359.10
2023-05-02T10:57:58.625Z,101361.09
2023-05-02T11:00:26.864Z,101356.49
2023-05-02T11:02:54.232Z,101355.92
2023-05-02T11:05:22.511Z,101350.67
2023-05-02T11:07:49.667Z,101351.85
2023-05-02T11:10:16.724Z,101349.02
2023-05-02T11:12:48.603Z,101342.85
2023-05-02T11:15:28.658Z,101339.29
2023-05-02T11:18:09.210Z,101334.31
2023-05-02T11:20:39.150Z,101337.00
2023-05-02T11:23:17.376Z,101335.80
2023-05-02T11:25:45.846Z,101336.43
2023-05-02T11:28:42.355Z,101335.43
2023-05-02T11:31:30.336Z,101334.70
2023-05-02T11:33:58.412Z,101332.07
2023-05-02T11:36:33.282Z,101327.48
2023-05-02T11:39:05.303Z,101322.02
2023-05-02T11:41:46.372Z,101320.29
2023-05-02T11:44:15.743Z,101318.55
2023-05-02T11:46:45.194Z,101317.86
2023-05-02T11:49:14.749Z,101316.05
2023-05-02T11:51:42.349Z,101313.77
2023-05-02T11:54:09.884Z,101311.85
2023-05-02T11:56:36.940Z,101313.73
2023-05-02T11:59:04.402Z,101316.38
2023-05-02T12:01:31.573Z,101313.64
2023-05-02T12:04:06.902Z,101308.91
2023-05-02T12:06:33.976Z,101305.83
2023-05-02T12:09:12.722Z,101300.79
2023-05-02T12:11:39.923Z,101301.25
2023-05-02T12:14:06.954Z,101300.13
2023-05-02T12:16:34.773Z,101295.52
2023-05-02T12:19:02.135Z,101290.59
2023-05-02T12:21:35.356Z,101287.48
2023-05-02T12:24:02.262Z,101281.36
2023-05-02T12:26:32.339Z,101283.83
2023-05-02T12:29:00.557Z,101280.94
2023-05-02T12:31:28.717Z,101285.09
2023-05-02T12:33:57.169Z,101280.89
2023-05-02T12:36:27.340Z,101276.08
2023-05-02T12:38:58.915Z,101274.66
2023-05-02T12:41:33.586Z,101273.05
2023-05-02T12:44:00.508Z,101267.88
2023-05-02T12:46:27.999Z,101267.72
2023-05-02T12:49:13.548Z,101268.29
2023-05-02T12:51:41.018Z,101271.27
2023-05-02T12:54:07.949Z,101268.73
2023-05-02T12:56:43.020Z,101267.59
2023-05-02T12:59:11.611Z,101270.27
2023-05-02T13:01:39.503Z,101272.08
2023-05-02T13:04:06.534Z,101269.88
2023-05-02T13:06:37.016Z,101263.60
2023-05-02T13:09:04.503Z,101260.89
2023-05-02T13:11:32.553Z,101255.38
2023-05-02T13:14:03.703Z,101251.10
2023-05-02T13:16:31.102Z,101251.63
2023-05-02T13:18:58.477Z,101242.29
2023-05-02T13:21:25.482Z,101233.77
2023-05-02T13:23:53.136Z,101234.43
2023-05-02T13:26:21.147Z,101233.00
2023-05-02T13:28:48.828Z,101228.61
2023-05-02T13:31:15.816Z,101224.73
2023-05-02T13:33:42.696Z,101224.08
2023-05-02T13:36:09.523Z,101229.60
2023-05-02T13:38:36.422Z,101225.86
2023-05-02T13:41:04.856Z,101230.13
2023-05-02T13:43:34.261Z,101234.62
2023-05-02T13:46:01.103Z,101231.98
2023-05-02T13:48:29.561Z,101235.37
2023-05-02T13:50:56.701Z,101232.51
2023-05-02T13:53:24.836Z,101226.48
2023-05-02T13:55:51.690Z,101221.79
2023-05-02T13:58:18.596Z,101216.82
2023-05-02T14:00:46.979Z,101218.05
2023-05-02T14:03:14.393Z,101221.45
2023-05-02T14:05:43.824Z,101218.57
2023-05-02T14:08:11.652Z,101215.98
2023-05-02T14:10:40.044Z,101213.36
2023-05-02T14:13:07.096Z,101214.77
2023-05-02T14:15:34.853Z,101209.55
2023-05-02T14:18:02.080Z,101202.73
2023-05-02T14:20:29.241Z,101202.89
2023-05-02T14:22:56.267Z,101194.06
2023-05-02T14:25:23.299Z,101193.73
2023-05-02T14:27:53.021Z,101186.08
2023-05-02T14:30:19.824Z,101186.09
2023-05-02T14:32:47.312Z,101186.08
2023-05-02T14:35:14.367Z,101182.35
2023-05-02T14:37:44.405Z,101180.66
2023-05-02T14:40:12.013Z,101180.13
2023-05-02T14:42:42.386Z,101180.42
2023-05-02T14:45:09.479Z,101179.97
2023-05-02T14:47:36.828Z,101173.97
2023-05-02T14:50:05.063Z,101166.41
2023-05-02T14:52:34.451Z,101161.45
2023-05-02T14:55:01.801Z,101160.00
2023-05-02T14:57:28.996Z,101159.23
2023-05-02T14:59:56.339Z,101158.59
2023-05-02T15:02:23.269Z,101155.02
2023-05-02T15:04:50.404Z,101152.76
2023-05-02T15:07:17.461Z,101155.79
2023-05-02T15:09:44.537Z,101150.41
2023-05-02T15:12:12.637Z,101150.14
2023-05-02T15:14:39.806Z,101149.45
2023-05-02T15:17:07.403Z,101153.14
2023-05-02T15:19:34.923Z,101150.17
2023-05-02T15:22:02.160Z,101149.23
2023-05-02T15:24:29.330Z,101147.50
2023-05-02T15:27:01.453Z,101147.94
2023-05-02T15:29:28.284Z,101147.52
2023-05-02T15:31:55.295Z,101149.02
2023-05-02T15:34:22.138Z,101149.61
2023-05-02T15:36:48.988Z,101147.02
2023-05-02T15:39:16.190Z,101146.20
2023-05-02T15:41:46.282Z,101142.36
2023-05-02T15:44:13.537Z,101140.67
2023-05-02T15:46:46.115Z,101133.57
2023-05-02T15:49:13.424Z,101133.22
2023-05-02T15:51:40.417Z,101138.56
2023-05-02T15:54:07.491Z,101135.67
2023-05-02T15:56:34.901Z,101137.90
2023-05-02T15:59:04.492Z,101139.66
2023-05-02T16:01:31.392Z,101136.66
2023-05-02T16:03:58.751Z,101134.69
2023-05-02T16:06:25.681Z,101136.14
2023-05-02T16:08:55.412Z,101133.52
2023-05-02T16:11:22.206Z,101129.61
2023-05-02T16:13:49.154Z,101129.27
2023-05-02T16:16:15.982Z,101129.69
2023-05-02T16:18:43.059Z,101127.84
2023-05-02T16:21:11.034Z,101127.31
2023-05-02T16:23:37.853Z,101126.80
2023-05-02T16:26:04.872Z,101124.18
2023-05-02T16:28:31.767Z,101122.07
2023-05-02T16:30:58.702Z,101124.98
2023-05-02T16:33:26.718Z,101123.66
2023-05-02T16:36:01.586Z,101120.06
2023-05-02T16:38:28.612Z,101117.89
2023-05-02T16:43:38.431Z,101118.45
2023-05-02T16:46:06.093Z,101118.73
2023-05-02T16:48:33.292Z,101118.10
2023-05-02T16:51:01.679Z,101117.08
2023-05-02T16:53:31.599Z,101113.95
2023-05-02T16:55:59.109Z,101113.10
2023-05-02T16:58:28.216Z,101108.31
2023-05-02T17:00:57.878Z,101113.79
2023-05-02T17:03:25.308Z,101112.83
2023-05-02T17:05:55.150Z,101116.52
2023-05-02T17:08:24.895Z,101121.05
2023-05-02T17:10:52.125Z,101119.42
2023-05-02T17:13:19.108Z,101116.30
2023-05-02T17:15:45.923Z,101117.56
2023-05-02T17:18:12.871Z,101120.37
2023-05-02T17:20:40.841Z,101123.14
2023-05-02T17:23:08.579Z,101126.06
2023-05-02T17:25:36.052Z,101135.77
2023-05-02T17:28:02.917Z,101135.40
2023-05-02T17:30:31.578Z,101139.57
2023-05-02T17:32:58.799Z,101143.24
2023-05-02T17:35:25.677Z,101138.69
2023-05-02T17:37:52.522Z,101144.98
2023-05-02T17:40:19.445Z,101145.70
2023-05-02T17:42:46.719Z,101142.91
2023-05-02T17:45:14.611Z,101144.88
2023-05-02T17:47:41.547Z,101145.66
2023-05-02T17:50:08.711Z,101151.91
2023-05-02T17:52:36.272Z,101152.11
2023-05-02T17:55:04.585Z,101155.34
2023-05-02T17:57:31.473Z,101155.48
2023-05-02T17:59:59.026Z,101161.45
2023-05-02T18:02:27.061Z,101164.67
2023-05-02T18:04:55.865Z,101167.44
2023-05-02T18:07:28.566Z,101170.94
2023-05-02T18:09:56.358Z,101175.88
2023-05-02T18:12:23.761Z,101177.86
2023-05-02T18:14:52.011Z,101179.04
2023-05-02T18:17:20.410Z,101181.98
2023-05-02T18:19:52.337Z,101177.50
2023-05-02T18:22:23.262Z,101177.73
2023-05-02T18:24:50.459Z,101176.01
2023-05-02T18:27:17.512Z,101178.48
2023-05-02T18:29:44.569Z,101178.71
2023-05-02T18:32:11.514Z,101175.15
2023-05-02T18:34:39.154Z,101175.07
2023-05-02T18:37:06.461Z,101176.06
2023-05-02T18:39:34.471Z,101175.91
2023-05-02T18:42:04.948Z,101182.55
2023-05-02T18:44:32.130Z,101183.36
2023-05-02T18:46:59.043Z,101180.17
2023-05-02T18:49:26.230Z,101183.67
2023-05-02T18:51:54.298Z,101184.52
2023-05-02T18:54:22.798Z,101185.86
2023-05-02T18:56:51.198Z,101182.23
2023-05-02T18:59:28.268Z,101183.41
2023-05-02T19:01:56.125Z,101185.98
2023-05-02T19:04:23.288Z,101187.20
2023-05-02T19:06:50.336Z,101190.31
2023-05-02T19:09:18.288Z,101193.88
2023-05-02T19:11:49.036Z,101193.69
2023-05-02T19:14:16.334Z,101190.91
2023-05-02T19:16:47.778Z,101188.45
2023-05-02T19:19:15.370Z,101190.78
2023-05-02T19:21:42.392Z,101187.77
2023-05-02T19:24:09.197Z,101191.98
2023-05-02T19:26:58.177Z,101193.23
2023-05-02T19:29:40.844Z,101193.66
2023-05-02T19:32:07.948Z,101191.56
2023-05-02T19:34:36.637Z,101193.82
2023-05-02T19:37:03.665Z,101195.92
2023-05-02T19:39:32.195Z,101198.70
2023-05-02T19:41:59.877Z,101195.31
2023-05-02T19:44:28.646Z,101191.47
2023-05-02T19:46:58.675Z,101193.40
2023-05-02T19:49:27.234Z,101190.98
2023-05-02T19:51:54.440Z,101192.80
2023-05-02T19:54:24.823Z,101193.83
2023-05-02T19:56:51.928Z,101192.45
2023-05-02T19:59:22.240Z,101193.20
2023-05-02T20:01:49.982Z,101197.49
2023-05-02T20:04:20.104Z,101200.61
2023-05-02T20:06:51.097Z,101199.48
2023-05-02T20:09:18.802Z,101201.04
2023-05-02T20:11:45.872Z,101206.45
2023-05-02T20:14:13.308Z,101205.58
2023-05-02T20:16:40.163Z,101207.83
2023-05-02T20:19:07.268Z,101206.95
2023-05-02T20:21:34.710Z,101206.02
2023-05-02T20:24:01.568Z,101204.89
2023-05-02T20:26:30.921Z,101210.89
2023-05-02T20:28:58.284Z,101206.54
2023-05-02T20:31:25.877Z,101205.98
2023-05-02T20:33:55.280Z,101205.49
2023-05-02T20:36:22.974Z,101201.92
2023-05-02T20:38:50.144Z,101201.90
2023-05-02T20:41:17.372Z,101202.13
2023-05-02T20:43:45.467Z,101201.23
2023-05-02T20:46:17.547Z,101207.62
2023-05-02T20:48:44.452Z,101208.05
2023-05-02T20:51:12.570Z,101211.89
2023-05-02T20:53:40.213Z,101209.79
2023-05-02T20:56:08.100Z,101210.14
2023-05-02T20:58:35.493Z,101209.81
2023-05-02T21:01:02.897Z,101211.49
2023-05-02T21:03:36.070Z,101211.42
2023-05-02T21:06:03.593Z,101214.73
2023-05-02T21:08:30.869Z,101212.19
2023-05-02T21:10:58.045Z,101216.41
2023-05-02T21:13:25.512Z,101216.27
2023-05-02T21:15:52.874Z,101214.17
2023-05-02T21:18:20.567Z,101215.35
2023-05-02T21:20:53.233Z,101217.30
2023-05-02T21:23:21.834Z,101217.17
2023-05-02T21:25:48.696Z,101221.05
2023-05-02T21:28:15.547Z,101227.25
2023-05-02T21:30:42.381Z,101228.30
2023-05-02T21:33:12.545Z,101226.71
2023-05-02T21:35:39.833Z,101228.14
2023-05-02T21:38:07.092Z,101224.73
2023-05-02T21:40:35.288Z,101227.82
2023-05-02T21:43:02.235Z,101229.02
2023-05-02T21:45:29.980Z,101228.27
2023-05-02T21:47:57.211Z,101229.45
2023-05-02T21:50:24.120Z,101231.00
2023-05-02T21:52:51.893Z,101232.89
2023-05-02T21:55:18.773Z,101235.31
2023-05-02T21:57:45.925Z,101230.65
2023-05-02T22:00:13.121Z,101228.58
2023-05-02T22:02:41.292Z,101227.03
2023-05-02T22:05:08.578Z,101221.38
2023-05-02T22:07:37.625Z,101222.90
2023-05-02T22:10:06.221Z,101221.64
2023-05-02T22:12:34.256Z,101217.95
2023-05-02T22:15:01.284Z,101217.33
2023-05-02T22:17:31.246Z,101212.46
2023-05-02T22:19:58.088Z,101212.52
2023-05-02T22:22:25.113Z,101214.35
2023-05-02T22:24:53.007Z,101212.92
2023-05-02T22:27:20.094Z,101214.73
2023-05-02T22:29:47.011Z,101214.80
2023-05-02T22:32:13.826Z,101219.89
2023-05-02T22:34:44.526Z,101217.84
2023-05-02T22:37:12.168Z,101217.44
2023-05-02T22:39:39.064Z,101223.48
2023-05-02T22:42:06.066Z,101221.00
2023-05-02T22:44:46.713Z,101221.85
2023-05-02T22:47:21.211Z,101224.13
2023-05-02T22:50:06.961Z,101220.58
2023-05-02T22:52:37.158Z,101222.21
2023-05-02T22:55:09.230Z,101225.17
2023-05-02T22:57:36.676Z,101220.98
2023-05-02T23:00:09.087Z,101223.38
2023-05-02T23:02:36.587Z,101224.33
2023-05-02T23:05:04.054Z,101221.48
2023-05-02T23:07:31.280Z,101220.55
2023-05-02T23:09:58.200Z,101217.68
2023-05-02T23:12:26.700Z,101214.75
2023-05-02T23:14:53.615Z,101213.58
2023-05-02T23:17:21.274Z,101215.14
2023-05-02T23:19:50.117Z,101218.94
2023-05-02T23:22:17.700Z,101227.68
2023-05-02T23:24:46.885Z,101226.23
2023-05-02T23:27:13.711Z,101229.77
2023-05-02T23:29:42.371Z,101236.91
2023-05-02T23:32:09.462Z,101242.95
2023-05-02T23:34:36.648Z,101244.42
2023-05-02T23:37:05.711Z,101234.77
2023-05-02T23:39:32.965Z,101236.45
2023-05-02T23:42:00.298Z,101233.75
2023-05-02T23:44:27.342Z,101234.21
2023-05-02T23:46:54.234Z,101235.84
2023-05-02T23:49:21.282Z,101236.44
2023-05-02T23:51:50.294Z,101234.29
2023-05-02T23:54:17.507Z,101234.79
2023-05-02T23:56:44.554Z,101233.52
2023-05-02T23:59:11.364Z,101232.14
